Timber Creek, Alabama
Current Conditions -  °F | °C
As of 12:53 AM on Thursday 23 Oct 2014 (Local Time) from KBFM Reporting Station
Clear Clear  
Wind Chill: 54°   Ceiling: Unl
Heat Index: 54°   Visibility: 10mi
Dew Point: 49°   Wind: 7mph
Humidity: 83%   Direction: 340°NNW
Pressure: 30.09"   Gusts: NA
Location:  30.6968°N, 87.8613°W
Report Text: KBFM 230553Z AUTO 34006KT 10SM CLR 12/09 A3009 RMK AO2 SLP189 T01220094 10211 20117 402560117 58004
Loading
Personal Weather Stations






























Interactive Weather Map
Tropical Storm Tracking
New forecast layout! Learn more

10-Day Weather Forecast

Advertisements
Track Severe Weather on mobile